KBOS

General Edward Lawrence Logan International Airport

Boston, Massachusetts, USA
METAR KBOS 231054Z 24004KT 10SM SCT120 BKN250 15/13 A2987 RMK AO2 SLP114 T01500128
Observed Flight Rules
May-23 @ 10:54 UTC (10 minutes ago) Visual Flight Rules
Wind Visibility Clouds
240° at 4 knots 10 miles
  • Scattered at 12,000' AGL
  • Broken at 25,000' AGL
Temperatures Readings
Current 15°C / 59°F
Dewpoint 13°C / 55°F
Humidity 88%
Altimeter 29.87" Hg
Pressure 1011.4 hPa
Elevation 6
METAR KBOS 231054Z 24004KT 10SM SCT120 BKN250 15/13 A2987 RMK AO2 SLP114 T01500128
Observed Flight Rules
May-23 @ 10:54 UTC
(10 minutes ago)
VFR
Wind Visibility
240° at 4 knots 10 miles
Clouds
  • Scattered at 12,000' AGL
  • Broken at 25,000' AGL
Temperature Dewpoint
15°C / 59°F 13°C / 55°F
Humidity Altimeter Pressure
88% 29.87" Hg 1011.4 hPa